Time;durP1;ratioP1;P1;durP2;ratioP2;P2;SDS_P1;SDS_P2;PMS_P1;PMS_P2;Temp;Humidity;BMP_temperature;BMP_pressure;BME280_temperature;BME280_humidity;BME280_pressure;Samples;Min_cycle;Max_cycle;Signal;HPM_P1;HPM_P2
2023/01/06 00:00:43;;;;;;;1.97;1.10;;;5.60;99.90;;;;;;5110675;28;20540;-48
2023/01/06 00:03:10;;;;;;;1.53;1.00;;;5.60;99.90;;;;;;5110060;28;20955;-48
2023/01/06 00:05:38;;;;;;;1.00;0.67;;;5.70;99.90;;;;;;5109539;28;20879;-49
2023/01/06 00:08:05;;;;;;;1.60;1.30;;;5.50;99.90;;;;;;5110958;28;20526;-49
2023/01/06 00:10:32;;;;;;;4.40;1.80;;;5.10;99.90;;;;;;5109205;28;20533;-48
2023/01/06 00:12:59;;;;;;;3.37;1.70;;;5.00;99.90;;;;;;5109504;28;20472;-50
2023/01/06 00:15:26;;;;;;;2.03;1.30;;;5.20;99.90;;;;;;5109849;28;20996;-48
2023/01/06 00:17:53;;;;;;;1.30;0.77;;;5.20;99.90;;;;;;5110375;28;20464;-48
2023/01/06 00:20:19;;;;;;;1.00;0.67;;;5.30;99.90;;;;;;5109766;28;20481;-48
2023/01/06 00:22:48;;;;;;;1.30;0.93;;;5.30;99.90;;;;;;5109114;28;20529;-48
2023/01/06 00:25:15;;;;;;;2.07;1.33;;;5.40;99.90;;;;;;5108517;28;20537;-44
2023/01/06 00:27:41;;;;;;;1.60;1.33;;;5.50;99.90;;;;;;5109941;28;20471;-48
2023/01/06 00:30:10;;;;;;;1.40;1.10;;;5.40;99.90;;;;;;5114576;28;20533;-48
2023/01/06 00:32:37;;;;;;;2.37;1.10;;;5.30;99.90;;;;;;5116780;27;20562;-48
2023/01/06 00:35:04;;;;;;;2.03;0.60;;;5.50;99.90;;;;;;5126810;27;20481;-48
2023/01/06 00:37:31;;;;;;;1.67;0.83;;;5.20;99.90;;;;;;5117154;27;20520;-50
2023/01/06 00:39:59;;;;;;;1.13;0.73;;;5.20;99.90;;;;;;5116129;28;21013;-47
2023/01/06 00:42:26;;;;;;;1.67;0.87;;;5.40;99.90;;;;;;5119403;28;20516;-47
2023/01/06 00:44:53;;;;;;;1.20;0.60;;;5.00;99.90;;;;;;5116697;27;20489;-49
2023/01/06 00:47:20;;;;;;;1.53;0.70;;;5.10;99.90;;;;;;5122602;28;20431;-49
2023/01/06 00:49:47;;;;;;;1.23;0.70;;;4.70;99.90;;;;;;5120017;28;20467;-49
2023/01/06 00:52:14;;;;;;;0.90;0.50;;;4.80;99.90;;;;;;5108927;28;20564;-44
2023/01/06 00:54:42;;;;;;;0.90;0.57;;;4.90;99.90;;;;;;5120262;28;20569;-51
2023/01/06 00:57:10;;;;;;;1.20;0.90;;;5.10;99.90;;;;;;5131168;27;20448;-48
2023/01/06 00:59:37;;;;;;;1.47;1.10;;;5.10;99.90;;;;;;5128998;27;20505;-50
2023/01/06 01:02:04;;;;;;;1.93;1.30;;;5.10;99.90;;;;;;5132963;27;20986;-48
2023/01/06 01:04:31;;;;;;;1.80;1.20;;;5.30;99.90;;;;;;5132954;27;20892;-46
2023/01/06 01:06:59;;;;;;;1.60;1.30;;;5.10;99.90;;;;;;5127690;27;20465;-51
2023/01/06 01:09:28;;;;;;;1.80;1.33;;;5.20;99.90;;;;;;5123216;27;20546;-49
2023/01/06 01:12:11;;;;;;;3.03;1.50;;;5.20;99.90;;;;;;5113720;27;20482;-48
2023/01/06 01:14:42;;;;;;;1.73;1.10;;;5.00;99.90;;;;;;5118756;27;20484;-48
2023/01/06 01:17:11;;;;;;;1.90;1.27;;;4.80;99.90;;;;;;5133540;27;20433;-48
2023/01/06 01:19:39;;;;;;;1.40;1.00;;;4.90;99.90;;;;;;5132717;27;20445;-48
2023/01/06 01:22:06;;;;;;;1.50;1.20;;;5.00;99.90;;;;;;5114492;27;20485;-49
2023/01/06 01:24:34;;;;;;;1.20;1.10;;;5.20;99.90;;;;;;5111489;28;20833;-48
2023/01/06 01:27:01;;;;;;;1.27;0.70;;;5.20;99.90;;;;;;5112776;28;20539;-49
2023/01/06 01:29:28;;;;;;;1.77;0.80;;;5.20;99.90;;;;;;5112396;28;20994;-47
2023/01/06 01:31:56;;;;;;;1.30;0.83;;;5.10;99.90;;;;;;5113299;27;20510;-47
2023/01/06 01:34:24;;;;;;;1.07;0.73;;;5.10;99.90;;;;;;5111334;28;20553;-48
2023/01/06 01:36:52;;;;;;;1.33;0.87;;;5.10;99.90;;;;;;5132462;27;20536;-48
2023/01/06 01:39:22;;;;;;;1.00;0.83;;;5.30;99.90;;;;;;5123674;27;20537;-48
2023/01/06 01:41:49;;;;;;;1.20;0.90;;;5.30;99.90;;;;;;5111896;28;20502;-48
2023/01/06 01:44:53;;;;;;;1.10;0.83;;;5.10;99.90;;;;;;5111533;27;20543;-47
2023/01/06 01:47:27;;;;;;;1.63;0.83;;;5.10;99.90;;;;;;5112048;28;20815;-48
2023/01/06 01:50:07;;;;;;;0.90;0.57;;;4.90;99.90;;;;;;5111975;28;20481;-48
2023/01/06 01:52:35;;;;;;;1.27;0.70;;;4.80;99.90;;;;;;5129782;27;20526;-50
2023/01/06 01:55:04;;;;;;;1.07;0.63;;;4.70;99.90;;;;;;5132123;27;20505;-48
2023/01/06 01:57:36;;;;;;;1.33;0.53;;;4.90;99.90;;;;;;5125705;27;20474;-48
2023/01/06 02:00:05;;;;;;;0.90;0.50;;;5.00;99.90;;;;;;5118872;27;20523;-47
2023/01/06 02:02:34;;;;;;;1.30;0.70;;;5.00;99.90;;;;;;5132276;27;20470;-51
2023/01/06 02:05:02;;;;;;;1.43;0.57;;;4.90;99.90;;;;;;5124983;27;20865;-48
2023/01/06 02:07:29;;;;;;;2.37;0.80;;;4.80;99.90;;;;;;5112133;27;20463;-48
2023/01/06 02:10:05;;;;;;;1.47;0.77;;;4.50;99.90;;;;;;5112877;28;20474;-48
2023/01/06 02:12:32;;;;;;;1.10;0.70;;;4.70;99.90;;;;;;5112817;28;20526;-48
2023/01/06 02:14:59;;;;;;;2.10;0.97;;;4.70;99.90;;;;;;5112136;28;20476;-48
2023/01/06 02:17:39;;;;;;;1.30;0.93;;;4.80;99.90;;;;;;5112782;27;20439;-47
2023/01/06 02:20:30;;;;;;;1.20;1.00;;;4.80;99.90;;;;;;5132588;27;20938;-48
2023/01/06 02:23:30;;;;;;;1.97;1.40;;;4.90;99.90;;;;;;5111328;28;20545;-48
2023/01/06 02:26:38;;;;;;;1.27;0.90;;;4.80;99.90;;;;;;5131782;27;20473;-48
2023/01/06 02:29:44;;;;;;;1.00;0.73;;;4.60;99.90;;;;;;5119299;27;21013;-48
2023/01/06 02:32:26;;;;;;;1.00;0.70;;;4.80;99.90;;;;;;5112619;28;20528;-48
2023/01/06 02:35:06;;;;;;;1.23;0.90;;;4.60;99.90;;;;;;5112106;27;21018;-48
2023/01/06 02:37:47;;;;;;;0.90;0.50;;;4.60;99.90;;;;;;5110076;27;20541;-50
2023/01/06 02:40:28;;;;;;;1.00;0.60;;;4.90;99.90;;;;;;5130907;27;21035;-46
2023/01/06 02:43:06;;;;;;;1.00;0.70;;;4.80;99.90;;;;;;5130134;27;20865;-52
2023/01/06 02:45:43;;;;;;;1.10;0.73;;;4.80;99.90;;;;;;5130278;27;20551;-48
2023/01/06 02:48:19;;;;;;;1.20;0.70;;;4.80;99.90;;;;;;5130670;27;21036;-48
2023/01/06 02:50:51;;;;;;;1.23;0.77;;;4.80;99.90;;;;;;5129398;27;20492;-48
2023/01/06 02:53:21;;;;;;;0.90;0.60;;;4.70;99.90;;;;;;5130886;27;20521;-49
2023/01/06 02:55:50;;;;;;;1.20;0.73;;;4.70;99.90;;;;;;5110098;28;20474;-48
2023/01/06 02:58:26;;;;;;;1.73;0.80;;;4.70;99.90;;;;;;5119925;27;20469;-49
2023/01/06 03:00:58;;;;;;;1.07;0.67;;;4.50;99.90;;;;;;5130527;27;20532;-48
2023/01/06 03:03:29;;;;;;;0.90;0.50;;;4.60;99.90;;;;;;5116625;27;20446;-48
2023/01/06 03:06:01;;;;;;;6.33;4.03;;;4.40;99.90;;;;;;5130969;27;20525;-49
2023/01/06 03:08:30;;;;;;;1.87;1.00;;;4.30;99.90;;;;;;5130662;27;20465;-50
2023/01/06 03:10:59;;;;;;;0.90;0.60;;;4.30;99.90;;;;;;5131304;27;20844;-49
2023/01/06 03:13:33;;;;;;;1.00;0.60;;;4.20;99.90;;;;;;5117148;27;20537;-51
2023/01/06 03:16:00;;;;;;;1.40;0.90;;;4.30;99.90;;;;;;5131290;27;20565;-47
2023/01/06 03:18:29;;;;;;;1.00;0.67;;;4.30;99.90;;;;;;5132014;27;20488;-48
2023/01/06 03:20:59;;;;;;;1.30;0.67;;;4.40;99.90;;;;;;5132517;27;20475;-49
2023/01/06 03:23:26;;;;;;;2.20;0.93;;;4.50;99.90;;;;;;5128061;27;20546;-47
2023/01/06 03:25:53;;;;;;;1.00;0.60;;;4.30;99.90;;;;;;5110073;28;20527;-49
2023/01/06 03:28:20;;;;;;;0.97;0.70;;;4.20;99.90;;;;;;5109552;28;20521;-49
2023/01/06 03:30:55;;;;;;;1.20;0.80;;;4.10;99.90;;;;;;5109734;28;20480;-50
2023/01/06 03:33:26;;;;;;;1.00;0.70;;;4.20;99.90;;;;;;5108310;27;20537;-47
2023/01/06 03:36:08;;;;;;;2.83;0.90;;;4.00;99.90;;;;;;5109868;28;20523;-48
2023/01/06 03:38:45;;;;;;;0.97;0.57;;;4.10;99.90;;;;;;5110221;28;20484;-47
2023/01/06 03:41:21;;;;;;;1.27;0.87;;;4.00;99.90;;;;;;5110743;28;20481;-47
2023/01/06 03:44:03;;;;;;;1.10;0.57;;;3.90;99.90;;;;;;5110838;27;20498;-48
2023/01/06 03:46:35;;;;;;;1.17;0.70;;;4.10;99.90;;;;;;5110744;28;20934;-47
2023/01/06 03:49:07;;;;;;;2.80;0.60;;;3.90;99.90;;;;;;5111203;28;20533;-48
2023/01/06 03:51:43;;;;;;;1.30;0.63;;;3.80;99.90;;;;;;5110597;28;20524;-49
2023/01/06 03:54:19;;;;;;;1.00;0.70;;;4.00;99.90;;;;;;5110811;27;20541;-48
2023/01/06 03:56:51;;;;;;;1.00;0.50;;;3.80;99.90;;;;;;5109276;28;20516;-48
2023/01/06 03:59:21;;;;;;;0.90;0.60;;;3.80;99.90;;;;;;5110664;27;20449;-47
2023/01/06 04:01:49;;;;;;;1.30;0.60;;;3.80;99.90;;;;;;5110928;28;20548;-47
2023/01/06 04:04:16;;;;;;;1.70;0.77;;;3.80;99.90;;;;;;5128154;27;20492;-48
2023/01/06 04:06:45;;;;;;;1.33;0.80;;;3.90;99.90;;;;;;5129914;27;20476;-48
2023/01/06 04:09:12;;;;;;;1.20;0.90;;;3.80;99.90;;;;;;5131102;27;20452;-47
2023/01/06 04:14:23;;;;;;;1.23;0.80;;;4.20;99.90;;;;;;5130124;27;20439;-47
2023/01/06 04:16:50;;;;;;;1.20;0.80;;;3.80;99.90;;;;;;5130928;27;20513;-50
2023/01/06 04:19:17;;;;;;;1.77;0.90;;;3.60;99.90;;;;;;5129215;27;21005;-49
2023/01/06 04:21:45;;;;;;;1.03;0.67;;;3.40;99.90;;;;;;5122463;27;20514;-49
2023/01/06 04:24:12;;;;;;;1.50;0.80;;;3.60;99.90;;;;;;5108118;28;20545;-49
2023/01/06 04:26:39;;;;;;;1.60;0.80;;;3.60;99.90;;;;;;5112641;27;20472;-48
2023/01/06 04:29:06;;;;;;;1.40;0.70;;;3.80;99.90;;;;;;5129437;27;20496;-47
2023/01/06 04:31:33;;;;;;;1.40;0.60;;;3.80;99.90;;;;;;5128646;27;21016;-49
2023/01/06 04:34:00;;;;;;;1.10;0.70;;;3.60;99.90;;;;;;5115737;27;20477;-48
2023/01/06 04:36:27;;;;;;;0.90;0.60;;;3.60;99.90;;;;;;5125979;27;20556;-48
2023/01/06 04:38:55;;;;;;;0.90;0.50;;;3.50;99.90;;;;;;5131182;27;20473;-48
2023/01/06 04:41:22;;;;;;;1.40;0.60;;;3.80;99.90;;;;;;5129835;27;20521;-48
2023/01/06 04:43:49;;;;;;;1.00;0.63;;;3.90;99.90;;;;;;5129284;27;20552;-47
2023/01/06 04:46:16;;;;;;;1.00;0.80;;;3.80;99.90;;;;;;5130173;27;20473;-48
2023/01/06 04:48:43;;;;;;;1.90;0.70;;;3.80;99.90;;;;;;5130819;27;20487;-47
2023/01/06 04:51:11;;;;;;;1.00;0.70;;;3.70;99.90;;;;;;5130862;27;20468;-47
2023/01/06 04:53:40;;;;;;;1.10;0.70;;;3.60;99.90;;;;;;5127864;27;20508;-49
2023/01/06 04:56:10;;;;;;;1.20;0.87;;;3.60;99.90;;;;;;5126536;27;20548;-47
2023/01/06 04:58:37;;;;;;;3.13;1.80;;;3.60;99.90;;;;;;5129679;27;20528;-48
2023/01/06 05:01:06;;;;;;;3.10;2.03;;;3.60;99.90;;;;;;5129418;27;20543;-48
2023/01/06 05:03:33;;;;;;;5.93;3.10;;;3.60;99.90;;;;;;5125934;27;20531;-49
2023/01/06 05:06:04;;;;;;;6.67;3.70;;;3.60;99.90;;;;;;5118142;27;20453;-48
2023/01/06 05:08:31;;;;;;;3.53;2.60;;;3.70;99.90;;;;;;5108414;28;20450;-48
2023/01/06 05:11:02;;;;;;;2.63;1.93;;;3.50;99.90;;;;;;5108818;28;20545;-49
2023/01/06 05:13:31;;;;;;;1.93;1.50;;;3.50;99.90;;;;;;5107610;28;20935;-48
2023/01/06 05:15:58;;;;;;;3.30;1.07;;;3.50;99.90;;;;;;5117344;28;20512;-49
2023/01/06 05:18:25;;;;;;;1.30;0.87;;;3.50;99.90;;;;;;5113847;27;20476;-48
2023/01/06 05:20:53;;;;;;;1.30;1.00;;;3.30;99.90;;;;;;5109992;28;20520;-48
2023/01/06 05:23:20;;;;;;;1.70;1.40;;;3.40;99.90;;;;;;5108782;28;20892;-48
2023/01/06 05:25:47;;;;;;;2.93;0.90;;;3.50;99.90;;;;;;5112113;28;20486;-47
2023/01/06 05:28:14;;;;;;;1.00;0.70;;;3.50;99.90;;;;;;5108377;28;20529;-46
2023/01/06 05:30:42;;;;;;;1.30;0.80;;;3.50;99.90;;;;;;5108434;28;20558;-48
2023/01/06 05:33:09;;;;;;;1.13;1.03;;;3.60;99.90;;;;;;5107851;28;20525;-47
2023/01/06 05:35:36;;;;;;;1.10;0.70;;;3.80;99.90;;;;;;5108750;28;20953;-48
2023/01/06 05:38:03;;;;;;;1.40;0.50;;;3.90;99.90;;;;;;5108685;28;20468;-48
2023/01/06 05:40:30;;;;;;;1.00;0.90;;;3.40;99.90;;;;;;5108725;28;20466;-47
2023/01/06 05:42:57;;;;;;;1.00;0.87;;;3.20;99.90;;;;;;5120441;27;20705;-49
2023/01/06 05:45:25;;;;;;;1.40;0.73;;;3.20;99.90;;;;;;5131383;27;20542;-47
2023/01/06 05:47:53;;;;;;;2.17;1.10;;;3.30;99.90;;;;;;5133734;27;20466;-47
2023/01/06 05:50:20;;;;;;;1.57;1.10;;;3.30;99.90;;;;;;5133702;27;20536;-48
2023/01/06 05:52:47;;;;;;;1.60;0.80;;;3.40;99.90;;;;;;5117144;27;20494;-48
2023/01/06 05:55:14;;;;;;;1.87;1.00;;;3.40;99.90;;;;;;5128077;27;20495;-47
2023/01/06 05:57:41;;;;;;;0.90;0.60;;;3.40;99.90;;;;;;5112814;28;20708;-47
2023/01/06 06:00:09;;;;;;;1.17;0.80;;;3.00;99.90;;;;;;5113171;28;20473;-47
2023/01/06 06:02:36;;;;;;;1.10;0.70;;;3.30;99.90;;;;;;5113011;27;20444;-47
2023/01/06 06:05:05;;;;;;;1.20;0.97;;;3.20;99.90;;;;;;5111900;28;20498;-48
2023/01/06 06:07:31;;;;;;;1.17;0.90;;;3.20;99.90;;;;;;5116801;27;20509;-48
2023/01/06 06:09:58;;;;;;;1.40;0.70;;;3.20;99.90;;;;;;5133478;27;20523;-47
2023/01/06 06:12:25;;;;;;;1.43;0.93;;;3.20;99.90;;;;;;5116443;27;20452;-48
2023/01/06 06:14:52;;;;;;;1.97;0.90;;;3.30;99.90;;;;;;5112415;27;20494;-50
2023/01/06 06:17:19;;;;;;;1.50;0.80;;;3.30;99.90;;;;;;5132920;27;21075;-49
2023/01/06 06:19:46;;;;;;;1.40;0.90;;;3.10;99.90;;;;;;5131113;27;20499;-47
2023/01/06 06:22:14;;;;;;;0.97;0.77;;;3.40;99.90;;;;;;5133486;27;20538;-47
2023/01/06 06:24:41;;;;;;;2.13;1.10;;;3.30;99.90;;;;;;5130816;27;20545;-47
2023/01/06 06:27:08;;;;;;;1.10;0.70;;;3.10;99.90;;;;;;5118106;27;20984;-49
2023/01/06 06:29:35;;;;;;;1.60;1.07;;;3.10;99.90;;;;;;5120459;27;20549;-47
2023/01/06 06:32:02;;;;;;;14.33;12.90;;;3.30;99.90;;;;;;5114635;27;20521;-47
2023/01/06 06:34:29;;;;;;;1.77;1.57;;;3.00;99.90;;;;;;5118479;27;20571;-47
2023/01/06 06:36:56;;;;;;;2.07;1.60;;;3.10;99.90;;;;;;5123432;27;20554;-47
2023/01/06 06:39:24;;;;;;;2.13;1.50;;;3.30;99.90;;;;;;5122075;27;20536;-50
2023/01/06 06:41:51;;;;;;;3.27;3.07;;;3.10;99.90;;;;;;5111547;28;20529;-50
2023/01/06 06:44:17;;;;;;;2.70;1.00;;;3.00;99.90;;;;;;5111235;28;20546;-47
2023/01/06 06:46:44;;;;;;;3.00;1.20;;;2.80;99.90;;;;;;5117501;27;20536;-47
2023/01/06 06:49:11;;;;;;;6.50;5.90;;;2.80;99.90;;;;;;5112603;27;20513;-48
2023/01/06 06:51:38;;;;;;;3.70;3.40;;;2.50;99.90;;;;;;5111879;28;20539;-48
2023/01/06 06:54:05;;;;;;;2.50;1.50;;;2.40;99.90;;;;;;5125698;27;20545;-47
2023/01/06 06:56:33;;;;;;;1.10;0.80;;;2.60;99.90;;;;;;5129892;27;20507;-47
2023/01/06 06:59:00;;;;;;;1.07;0.70;;;3.00;99.90;;;;;;5128397;27;20863;-48
2023/01/06 07:01:30;;;;;;;2.23;1.37;;;3.30;99.90;;;;;;5112900;27;20534;-48
2023/01/06 07:03:57;;;;;;;1.10;0.83;;;3.20;99.90;;;;;;5117446;27;20930;-48
2023/01/06 07:06:26;;;;;;;1.70;0.90;;;3.00;99.90;;;;;;5121180;27;20824;-47
2023/01/06 07:08:53;;;;;;;1.60;1.30;;;3.10;99.90;;;;;;5119556;27;20443;-47
2023/01/06 07:11:20;;;;;;;4.73;3.50;;;3.00;99.90;;;;;;5130838;27;20539;-47
2023/01/06 07:13:49;;;;;;;4.23;3.77;;;2.90;99.90;;;;;;5115776;27;20907;-47
2023/01/06 07:16:16;;;;;;;4.17;3.57;;;2.70;99.90;;;;;;5109404;28;21031;-48
2023/01/06 07:18:43;;;;;;;3.20;2.70;;;2.70;99.90;;;;;;5108999;28;20472;-49
2023/01/06 07:21:10;;;;;;;1.60;1.30;;;2.90;99.90;;;;;;5109224;28;20976;-48
2023/01/06 07:23:37;;;;;;;1.93;1.13;;;3.00;99.90;;;;;;5121247;27;20534;-49
2023/01/06 07:26:04;;;;;;;2.27;1.40;;;2.90;99.90;;;;;;5114954;27;20483;-48
2023/01/06 07:28:33;;;;;;;1.40;1.00;;;3.00;99.90;;;;;;5116518;27;20982;-49
2023/01/06 07:31:01;;;;;;;2.70;1.30;;;3.00;99.90;;;;;;5118579;27;20535;-50
2023/01/06 07:33:29;;;;;;;2.40;0.87;;;3.00;99.90;;;;;;5119097;27;20523;-48
2023/01/06 07:35:57;;;;;;;2.87;1.10;;;3.10;99.90;;;;;;5117083;27;20456;-48
2023/01/06 07:38:24;;;;;;;1.00;0.90;;;3.20;99.90;;;;;;5118433;27;20467;-48
2023/01/06 07:40:52;;;;;;;7.20;4.57;;;3.20;99.90;;;;;;5120720;27;20530;-48
2023/01/06 07:43:19;;;;;;;4.50;3.33;;;3.10;99.90;;;;;;5117458;27;21004;-47
2023/01/06 07:45:46;;;;;;;4.33;1.77;;;3.20;99.90;;;;;;5119737;27;20532;-47
2023/01/06 07:48:15;;;;;;;1.60;1.27;;;3.20;99.90;;;;;;5120330;27;20441;-53
2023/01/06 07:50:42;;;;;;;2.33;2.13;;;3.20;99.90;;;;;;5118001;27;20450;-48
2023/01/06 07:53:09;;;;;;;4.00;3.70;;;3.30;99.90;;;;;;5117587;27;20633;-50
2023/01/06 07:55:36;;;;;;;4.63;3.60;;;3.10;99.90;;;;;;5116615;27;20469;-47
2023/01/06 07:58:05;;;;;;;3.20;1.77;;;3.20;99.90;;;;;;5119502;27;20566;-48
2023/01/06 08:00:32;;;;;;;2.80;2.00;;;3.20;99.90;;;;;;5113583;27;20439;-48
2023/01/06 08:03:03;;;;;;;1.67;1.13;;;3.30;99.90;;;;;;5109435;27;20554;-47
2023/01/06 08:05:31;;;;;;;3.33;2.83;;;3.20;99.90;;;;;;5115039;27;20583;-50
2023/01/06 08:07:58;;;;;;;2.50;2.30;;;3.20;99.90;;;;;;5118584;27;20523;-48
2023/01/06 08:10:25;;;;;;;2.80;2.30;;;3.00;99.90;;;;;;5118689;27;20518;-47
2023/01/06 08:12:52;;;;;;;2.53;2.33;;;3.20;99.90;;;;;;5117624;27;20535;-44
2023/01/06 08:15:19;;;;;;;2.87;2.67;;;3.30;99.90;;;;;;5117596;27;20909;-48
2023/01/06 08:17:46;;;;;;;2.20;1.83;;;3.40;99.90;;;;;;5117891;27;20579;-47
2023/01/06 08:20:13;;;;;;;3.57;2.10;;;3.20;99.90;;;;;;5116698;27;20517;-49
2023/01/06 08:22:41;;;;;;;1.70;1.60;;;3.10;99.90;;;;;;5116975;27;21037;-48
2023/01/06 08:25:10;;;;;;;2.13;1.80;;;3.20;99.90;;;;;;5118440;27;20987;-48
2023/01/06 08:27:37;;;;;;;2.80;1.90;;;3.10;99.90;;;;;;5116399;27;20487;-47
2023/01/06 08:30:05;;;;;;;3.57;2.60;;;3.00;99.90;;;;;;5121052;27;20631;-48
2023/01/06 08:32:32;;;;;;;4.27;2.87;;;3.00;99.90;;;;;;5118078;27;20441;-47
2023/01/06 08:34:59;;;;;;;4.37;1.43;;;3.20;99.90;;;;;;5114400;27;20461;-48
2023/01/06 08:37:26;;;;;;;1.57;1.20;;;3.50;99.90;;;;;;5118207;27;20562;-50
2023/01/06 08:39:54;;;;;;;1.30;1.13;;;3.60;99.90;;;;;;5118058;28;20471;-49
2023/01/06 08:42:21;;;;;;;3.00;1.43;;;3.30;99.90;;;;;;5118832;28;21020;-48
2023/01/06 08:44:48;;;;;;;1.20;0.80;;;3.20;99.90;;;;;;5111635;28;20476;-51
2023/01/06 08:47:15;;;;;;;2.63;1.80;;;3.20;99.90;;;;;;5113071;27;20478;-43
2023/01/06 08:49:41;;;;;;;3.20;2.40;;;2.90;99.90;;;;;;5114993;28;20642;-50
2023/01/06 08:52:08;;;;;;;2.73;2.53;;;2.90;99.90;;;;;;5116509;27;20955;-51
2023/01/06 08:54:35;;;;;;;3.00;2.10;;;3.00;99.90;;;;;;5107112;27;20506;-47
2023/01/06 08:57:04;;;;;;;3.33;3.03;;;3.10;99.90;;;;;;5119170;28;20554;-47
2023/01/06 08:59:30;;;;;;;4.37;2.60;;;3.20;99.90;;;;;;5122243;27;20521;-50
2023/01/06 09:01:57;;;;;;;1.83;1.67;;;3.30;99.90;;;;;;5113983;27;20466;-49
2023/01/06 09:04:24;;;;;;;1.50;1.33;;;3.60;99.90;;;;;;5113589;28;20531;-47
2023/01/06 09:06:51;;;;;;;3.20;2.10;;;3.70;99.90;;;;;;5115283;27;20467;-47
2023/01/06 09:09:18;;;;;;;2.80;2.60;;;3.50;99.90;;;;;;5114126;27;20472;-47
2023/01/06 09:11:45;;;;;;;3.83;3.23;;;3.50;99.90;;;;;;5116731;28;20497;-49
2023/01/06 09:14:14;;;;;;;2.90;2.20;;;3.30;99.90;;;;;;5115197;28;20490;-48
2023/01/06 09:16:41;;;;;;;2.57;2.17;;;3.30;99.90;;;;;;5124410;27;20744;-49
2023/01/06 09:19:09;;;;;;;4.77;4.10;;;3.40;99.90;;;;;;5118303;27;21033;-51
2023/01/06 09:21:36;;;;;;;4.90;3.50;;;3.30;99.90;;;;;;5115499;27;20443;-51
2023/01/06 09:24:03;;;;;;;2.93;2.60;;;3.30;99.90;;;;;;5114749;27;20457;-47
2023/01/06 09:26:30;;;;;;;3.23;2.63;;;3.20;99.90;;;;;;5117888;27;20449;-50
2023/01/06 09:28:57;;;;;;;3.70;2.57;;;3.10;99.90;;;;;;5113950;27;20505;-48
2023/01/06 09:31:25;;;;;;;2.53;1.97;;;3.10;99.90;;;;;;5119115;27;20972;-48
2023/01/06 09:33:52;;;;;;;3.80;3.30;;;3.20;99.90;;;;;;5106533;28;20555;-48
2023/01/06 09:36:19;;;;;;;8.13;4.77;;;3.20;99.90;;;;;;5118977;27;20440;-47
2023/01/06 09:38:46;;;;;;;5.87;5.07;;;2.90;99.90;;;;;;5108038;28;20564;-48
2023/01/06 09:41:39;;;;;;;3.30;3.00;;;2.80;99.90;;;;;;5108987;28;20481;-48
2023/01/06 09:44:13;;;;;;;3.10;2.80;;;3.00;99.90;;;;;;5098478;27;20785;-49
2023/01/06 09:46:44;;;;;;;3.00;2.77;;;3.20;99.90;;;;;;5136236;27;20828;-47
2023/01/06 09:49:21;;;;;;;3.80;3.10;;;3.20;99.90;;;;;;5125109;27;20470;-47
2023/01/06 09:51:48;;;;;;;7.87;4.97;;;3.50;99.90;;;;;;5125480;27;20466;-47
2023/01/06 09:54:20;;;;;;;6.57;5.87;;;3.40;99.90;;;;;;5125376;27;20672;-46
2023/01/06 09:56:54;;;;;;;8.27;7.47;;;3.10;99.90;;;;;;5114442;27;20472;-48
2023/01/06 09:59:27;;;;;;;9.53;7.80;;;2.60;99.90;;;;;;5117253;27;21003;-50
2023/01/06 10:01:58;;;;;;;4.20;3.80;;;2.60;99.90;;;;;;5117528;27;20451;-49
2023/01/06 10:04:27;;;;;;;6.23;3.40;;;3.10;99.90;;;;;;5119041;27;20468;-50
2023/01/06 10:07:10;;;;;;;3.97;3.60;;;3.30;99.90;;;;;;5121728;27;20901;-50
2023/01/06 10:09:46;;;;;;;6.70;6.03;;;3.40;99.90;;;;;;5121997;27;20851;-47
2023/01/06 10:12:25;;;;;;;6.90;5.07;;;3.40;99.90;;;;;;5121135;27;20836;-48
2023/01/06 10:15:01;;;;;;;14.10;9.57;;;3.60;99.90;;;;;;5115403;27;20466;-52
2023/01/06 10:17:46;;;;;;;5.80;5.20;;;3.70;99.90;;;;;;5127538;27;20997;-48
2023/01/06 10:20:32;;;;;;;5.83;5.00;;;3.90;99.90;;;;;;5118656;27;20444;-53
2023/01/06 10:23:12;;;;;;;4.07;3.57;;;4.20;99.90;;;;;;5120741;27;20968;-47
2023/01/06 10:25:45;;;;;;;3.57;2.17;;;4.40;99.90;;;;;;5128088;27;20542;-50
2023/01/06 10:28:19;;;;;;;3.90;2.00;;;4.60;99.90;;;;;;5108353;28;20873;-48
2023/01/06 10:30:49;;;;;;;4.60;3.40;;;4.70;99.90;;;;;;5107541;27;20485;-50
2023/01/06 10:33:22;;;;;;;4.23;3.83;;;4.70;99.90;;;;;;5113537;27;20473;-49
2023/01/06 10:35:50;;;;;;;6.30;5.37;;;4.80;99.90;;;;;;5109062;27;20846;-50
2023/01/06 10:38:18;;;;;;;8.30;5.47;;;4.80;99.90;;;;;;5126155;27;21001;-49
2023/01/06 10:40:45;;;;;;;7.60;5.80;;;4.90;99.90;;;;;;5129349;27;20528;-50
2023/01/06 10:43:14;;;;;;;8.33;6.37;;;4.90;99.90;;;;;;5117463;27;20544;-47
2023/01/06 10:45:42;;;;;;;7.03;6.13;;;5.00;99.90;;;;;;5116311;27;20477;-49
2023/01/06 10:48:14;;;;;;;7.27;6.57;;;5.10;99.90;;;;;;5118349;27;20517;-50
2023/01/06 10:50:42;;;;;;;12.00;7.30;;;5.30;99.90;;;;;;5119520;27;20524;-49
2023/01/06 10:53:11;;;;;;;11.50;6.90;;;5.40;99.90;;;;;;5114565;27;20442;-51
2023/01/06 10:55:43;;;;;;;8.43;6.30;;;5.40;99.90;;;;;;5124320;27;20551;-48
2023/01/06 10:58:22;;;;;;;9.00;6.83;;;5.50;99.90;;;;;;5128308;27;20565;-48
2023/01/06 11:00:57;;;;;;;5.30;4.67;;;5.50;99.90;;;;;;5128358;27;20446;-48
2023/01/06 11:03:25;;;;;;;4.70;3.70;;;5.60;99.90;;;;;;5127146;27;20532;-51
2023/01/06 11:06:04;;;;;;;5.37;3.70;;;5.50;99.90;;;;;;5128135;27;20438;-47
2023/01/06 11:08:32;;;;;;;4.37;3.50;;;5.60;99.90;;;;;;5126766;27;20532;-48
2023/01/06 11:10:59;;;;;;;6.70;4.90;;;5.80;99.90;;;;;;5120600;27;20529;-51
2023/01/06 11:13:29;;;;;;;3.93;3.53;;;5.90;99.90;;;;;;5108495;27;21000;-48
2023/01/06 11:15:58;;;;;;;4.80;4.00;;;5.90;99.90;;;;;;5120794;27;20569;-48
2023/01/06 11:18:28;;;;;;;6.83;3.77;;;6.00;99.90;;;;;;5134684;27;20502;-48
2023/01/06 11:21:06;;;;;;;4.47;3.40;;;5.90;99.90;;;;;;5128438;27;20542;-48
2023/01/06 11:23:33;;;;;;;4.30;3.10;;;5.90;99.90;;;;;;5108414;27;20530;-49
2023/01/06 11:26:15;;;;;;;6.50;3.30;;;5.90;99.90;;;;;;5116312;27;20550;-50
2023/01/06 11:28:44;;;;;;;6.80;3.20;;;5.90;99.90;;;;;;5126828;27;20934;-49
2023/01/06 11:31:19;;;;;;;3.83;2.90;;;5.90;99.90;;;;;;5115550;27;20477;-48
2023/01/06 11:33:52;;;;;;;2.33;2.10;;;6.00;99.90;;;;;;5118303;27;20458;-48
2023/01/06 11:36:22;;;;;;;4.07;2.20;;;6.10;99.90;;;;;;5110680;27;20466;-49
2023/01/06 11:38:52;;;;;;;2.30;2.00;;;6.10;99.90;;;;;;5115250;27;20470;-49
2023/01/06 11:41:26;;;;;;;4.60;2.13;;;6.20;99.90;;;;;;5115211;27;20528;-51
2023/01/06 11:43:56;;;;;;;2.77;2.30;;;6.30;99.90;;;;;;5114396;27;20544;-47
2023/01/06 11:46:25;;;;;;;1.90;1.70;;;6.30;99.90;;;;;;5125010;27;20920;-47
2023/01/06 11:48:59;;;;;;;2.70;1.80;;;6.40;99.90;;;;;;5124697;27;20457;-48
2023/01/06 11:51:47;;;;;;;2.67;2.47;;;6.50;99.90;;;;;;5117578;27;21026;-49
2023/01/06 11:54:25;;;;;;;3.07;2.40;;;6.60;99.90;;;;;;5118220;27;20458;-48
2023/01/06 11:57:19;;;;;;;2.87;2.20;;;6.60;99.90;;;;;;5126401;27;20444;-49
2023/01/06 12:00:02;;;;;;;3.00;1.97;;;6.70;99.90;;;;;;5147436;27;20483;-46
2023/01/06 12:02:37;;;;;;;3.07;1.40;;;6.80;99.90;;;;;;5148186;27;20445;-48
2023/01/06 12:05:10;;;;;;;1.40;1.27;;;6.90;99.90;;;;;;5147630;27;21022;-47
2023/01/06 12:07:46;;;;;;;1.60;1.33;;;6.90;99.90;;;;;;5146260;27;20441;-47
2023/01/06 12:10:18;;;;;;;1.50;1.10;;;6.90;99.90;;;;;;5118958;27;20806;-46
2023/01/06 12:12:45;;;;;;;2.30;0.80;;;7.00;99.90;;;;;;5112030;27;20995;-47
2023/01/06 12:15:13;;;;;;;1.70;1.00;;;7.10;99.90;;;;;;5120282;27;21196;-50
2023/01/06 12:17:49;;;;;;;1.50;1.10;;;7.10;99.90;;;;;;5118869;27;20883;-48
2023/01/06 12:20:20;;;;;;;2.03;1.20;;;7.10;99.90;;;;;;5115177;27;20442;-46
2023/01/06 12:22:51;;;;;;;2.67;1.30;;;7.20;99.90;;;;;;5107152;27;20892;-49
2023/01/06 12:25:23;;;;;;;2.37;1.80;;;7.30;99.90;;;;;;5106108;27;20555;-48
2023/01/06 12:27:54;;;;;;;2.57;1.30;;;7.30;99.90;;;;;;5110789;27;20970;-49
2023/01/06 12:30:27;;;;;;;2.23;1.50;;;7.30;99.90;;;;;;5104999;27;20483;-48
2023/01/06 12:32:58;;;;;;;1.93;1.73;;;7.30;99.90;;;;;;5104416;27;20442;-43
2023/01/06 12:35:29;;;;;;;2.40;1.50;;;7.40;99.90;;;;;;5104433;28;20494;-49
2023/01/06 12:38:03;;;;;;;3.30;2.10;;;7.50;99.90;;;;;;5106133;28;20631;-49
2023/01/06 12:40:34;;;;;;;2.77;2.03;;;7.60;99.90;;;;;;5105569;28;20541;-49
2023/01/06 12:43:14;;;;;;;3.33;2.30;;;7.60;99.90;;;;;;5105963;28;20451;-49
2023/01/06 12:45:46;;;;;;;2.77;2.30;;;7.70;99.90;;;;;;5125199;27;20905;-49
2023/01/06 12:48:20;;;;;;;4.20;2.50;;;7.80;99.90;;;;;;5142447;27;20947;-49
2023/01/06 12:50:52;;;;;;;3.80;2.30;;;7.80;99.90;;;;;;5148079;27;20883;-47
2023/01/06 12:53:24;;;;;;;3.63;2.90;;;7.80;99.90;;;;;;5149665;27;20494;-49
2023/01/06 12:56:11;;;;;;;4.70;2.97;;;7.80;99.90;;;;;;5149550;27;20545;-48
2023/01/06 12:58:48;;;;;;;3.20;1.97;;;7.80;99.90;;;;;;5150616;27;20553;-48
2023/01/06 13:01:20;;;;;;;4.93;1.93;;;7.70;99.90;;;;;;5150593;27;20468;-50
2023/01/06 13:04:31;;;;;;;2.87;1.90;;;7.60;99.90;;;;;;5149996;27;20977;-47
2023/01/06 13:07:10;;;;;;;1.50;1.40;;;7.70;99.90;;;;;;5078355;28;20967;-47
2023/01/06 13:09:57;;;;;;;3.00;1.60;;;7.70;99.90;;;;;;5065286;28;20511;-48
2023/01/06 13:12:48;;;;;;;2.73;1.73;;;7.70;99.90;;;;;;5107365;27;20466;-47
2023/01/06 13:15:19;;;;;;;2.93;1.90;;;7.70;99.90;;;;;;5132460;27;20456;-44
2023/01/06 13:17:55;;;;;;;3.20;2.00;;;7.70;99.90;;;;;;5143010;27;20545;-48